sensor_id;sensor_type;location;lat;lon;timestamp;P1;durP1;ratioP1;P2;durP2;ratioP2
20828;SDS011;10575;50.124;8.582;2023-12-28T00:00:23;18.85;;;8.63;;
20828;SDS011;10575;50.124;8.582;2023-12-28T00:02:48;21.40;;;10.30;;
20828;SDS011;10575;50.124;8.582;2023-12-28T00:05:14;20.23;;;10.68;;
20828;SDS011;10575;50.124;8.582;2023-12-28T00:07:42;21.08;;;9.68;;
20828;SDS011;10575;50.124;8.582;2023-12-28T00:10:08;17.50;;;9.15;;
20828;SDS011;10575;50.124;8.582;2023-12-28T00:12:33;18.92;;;9.48;;
20828;SDS011;10575;50.124;8.582;2023-12-28T00:15:00;20.45;;;10.35;;
20828;SDS011;10575;50.124;8.582;2023-12-28T00:17:26;17.73;;;9.07;;
20828;SDS011;10575;50.124;8.582;2023-12-28T00:19:51;21.13;;;9.13;;
20828;SDS011;10575;50.124;8.582;2023-12-28T00:22:17;19.67;;;9.75;;
20828;SDS011;10575;50.124;8.582;2023-12-28T00:24:42;16.65;;;8.65;;
20828;SDS011;10575;50.124;8.582;2023-12-28T00:27:08;21.63;;;9.40;;
20828;SDS011;10575;50.124;8.582;2023-12-28T00:29:33;18.70;;;9.48;;
20828;SDS011;10575;50.124;8.582;2023-12-28T00:32:03;17.90;;;10.30;;
20828;SDS011;10575;50.124;8.582;2023-12-28T00:34:32;17.52;;;9.15;;
20828;SDS011;10575;50.124;8.582;2023-12-28T00:36:57;17.83;;;9.30;;
20828;SDS011;10575;50.124;8.582;2023-12-28T00:39:23;16.25;;;9.05;;
20828;SDS011;10575;50.124;8.582;2023-12-28T00:41:51;15.13;;;9.05;;
20828;SDS011;10575;50.124;8.582;2023-12-28T00:44:17;16.70;;;8.65;;
20828;SDS011;10575;50.124;8.582;2023-12-28T00:46:42;17.25;;;9.63;;
20828;SDS011;10575;50.124;8.582;2023-12-28T00:49:07;19.73;;;9.30;;
20828;SDS011;10575;50.124;8.582;2023-12-28T00:51:33;14.30;;;8.90;;
20828;SDS011;10575;50.124;8.582;2023-12-28T00:53:59;15.98;;;9.88;;
20828;SDS011;10575;50.124;8.582;2023-12-28T00:56:25;16.13;;;9.05;;
20828;SDS011;10575;50.124;8.582;2023-12-28T00:58:50;16.08;;;9.10;;
20828;SDS011;10575;50.124;8.582;2023-12-28T01:01:16;19.27;;;9.00;;
20828;SDS011;10575;50.124;8.582;2023-12-28T01:03:41;16.00;;;8.55;;
20828;SDS011;10575;50.124;8.582;2023-12-28T01:06:07;14.68;;;8.32;;
20828;SDS011;10575;50.124;8.582;2023-12-28T01:08:35;18.00;;;8.30;;
20828;SDS011;10575;50.124;8.582;2023-12-28T01:11:01;15.23;;;8.27;;
20828;SDS011;10575;50.124;8.582;2023-12-28T01:13:27;15.48;;;8.43;;
20828;SDS011;10575;50.124;8.582;2023-12-28T01:15:53;17.55;;;7.38;;
20828;SDS011;10575;50.124;8.582;2023-12-28T01:18:19;17.55;;;7.72;;
20828;SDS011;10575;50.124;8.582;2023-12-28T01:20:45;16.27;;;8.65;;
20828;SDS011;10575;50.124;8.582;2023-12-28T01:23:11;15.43;;;8.10;;
20828;SDS011;10575;50.124;8.582;2023-12-28T01:25:36;19.05;;;9.10;;
20828;SDS011;10575;50.124;8.582;2023-12-28T01:28:02;15.90;;;8.57;;
20828;SDS011;10575;50.124;8.582;2023-12-28T01:30:28;16.63;;;8.48;;
20828;SDS011;10575;50.124;8.582;2023-12-28T01:32:53;16.42;;;8.63;;
20828;SDS011;10575;50.124;8.582;2023-12-28T01:35:19;14.43;;;8.40;;
20828;SDS011;10575;50.124;8.582;2023-12-28T01:37:44;15.63;;;8.45;;
20828;SDS011;10575;50.124;8.582;2023-12-28T01:40:10;17.77;;;8.65;;
20828;SDS011;10575;50.124;8.582;2023-12-28T01:42:36;15.43;;;8.38;;
20828;SDS011;10575;50.124;8.582;2023-12-28T01:45:02;18.77;;;8.93;;
20828;SDS011;10575;50.124;8.582;2023-12-28T01:47:28;16.02;;;8.18;;
20828;SDS011;10575;50.124;8.582;2023-12-28T01:49:54;16.45;;;8.70;;
20828;SDS011;10575;50.124;8.582;2023-12-28T01:52:20;14.32;;;8.07;;
20828;SDS011;10575;50.124;8.582;2023-12-28T01:54:46;13.00;;;7.30;;
20828;SDS011;10575;50.124;8.582;2023-12-28T01:57:13;16.60;;;7.68;;
20828;SDS011;10575;50.124;8.582;2023-12-28T01:59:39;15.25;;;7.93;;
20828;SDS011;10575;50.124;8.582;2023-12-28T02:02:06;11.40;;;7.20;;
20828;SDS011;10575;50.124;8.582;2023-12-28T02:04:32;12.20;;;7.15;;
20828;SDS011;10575;50.124;8.582;2023-12-28T02:06:58;15.95;;;7.53;;
20828;SDS011;10575;50.124;8.582;2023-12-28T02:09:25;14.52;;;7.63;;
20828;SDS011;10575;50.124;8.582;2023-12-28T02:11:50;11.95;;;7.20;;
20828;SDS011;10575;50.124;8.582;2023-12-28T02:14:17;12.32;;;7.15;;
20828;SDS011;10575;50.124;8.582;2023-12-28T02:16:44;13.38;;;7.35;;
20828;SDS011;10575;50.124;8.582;2023-12-28T02:19:20;11.70;;;6.45;;
20828;SDS011;10575;50.124;8.582;2023-12-28T02:21:53;10.15;;;6.32;;
20828;SDS011;10575;50.124;8.582;2023-12-28T02:24:20;11.63;;;6.68;;
20828;SDS011;10575;50.124;8.582;2023-12-28T02:26:48;11.82;;;7.13;;
20828;SDS011;10575;50.124;8.582;2023-12-28T02:29:13;12.13;;;7.10;;
20828;SDS011;10575;50.124;8.582;2023-12-28T02:31:39;11.48;;;7.03;;
20828;SDS011;10575;50.124;8.582;2023-12-28T02:34:16;12.27;;;7.25;;
20828;SDS011;10575;50.124;8.582;2023-12-28T02:36:47;12.75;;;7.22;;
20828;SDS011;10575;50.124;8.582;2023-12-28T02:39:14;9.68;;;6.38;;
20828;SDS011;10575;50.124;8.582;2023-12-28T02:41:42;12.90;;;6.35;;
20828;SDS011;10575;50.124;8.582;2023-12-28T02:44:09;10.40;;;5.97;;
20828;SDS011;10575;50.124;8.582;2023-12-28T02:46:34;10.82;;;6.20;;
20828;SDS011;10575;50.124;8.582;2023-12-28T02:49:00;13.52;;;7.10;;
20828;SDS011;10575;50.124;8.582;2023-12-28T02:51:25;11.30;;;6.72;;
20828;SDS011;10575;50.124;8.582;2023-12-28T02:53:51;11.52;;;6.35;;
20828;SDS011;10575;50.124;8.582;2023-12-28T02:56:16;13.77;;;6.07;;
20828;SDS011;10575;50.124;8.582;2023-12-28T02:58:42;10.05;;;6.20;;
20828;SDS011;10575;50.124;8.582;2023-12-28T03:01:07;9.77;;;5.93;;
20828;SDS011;10575;50.124;8.582;2023-12-28T03:03:33;11.27;;;6.30;;
20828;SDS011;10575;50.124;8.582;2023-12-28T03:05:58;9.57;;;6.05;;
20828;SDS011;10575;50.124;8.582;2023-12-28T03:08:24;11.32;;;6.03;;
20828;SDS011;10575;50.124;8.582;2023-12-28T03:10:49;10.10;;;5.68;;
20828;SDS011;10575;50.124;8.582;2023-12-28T03:13:15;9.73;;;5.88;;
20828;SDS011;10575;50.124;8.582;2023-12-28T03:15:40;9.93;;;5.95;;
20828;SDS011;10575;50.124;8.582;2023-12-28T03:18:06;11.38;;;6.10;;
20828;SDS011;10575;50.124;8.582;2023-12-28T03:20:31;11.68;;;5.65;;
20828;SDS011;10575;50.124;8.582;2023-12-28T03:22:57;11.13;;;5.45;;
20828;SDS011;10575;50.124;8.582;2023-12-28T03:25:22;10.00;;;5.57;;
20828;SDS011;10575;50.124;8.582;2023-12-28T03:27:48;8.48;;;5.32;;
20828;SDS011;10575;50.124;8.582;2023-12-28T03:30:13;10.15;;;5.35;;
20828;SDS011;10575;50.124;8.582;2023-12-28T03:32:42;13.02;;;6.05;;
20828;SDS011;10575;50.124;8.582;2023-12-28T03:35:07;8.85;;;5.57;;
20828;SDS011;10575;50.124;8.582;2023-12-28T03:37:33;8.27;;;5.50;;
20828;SDS011;10575;50.124;8.582;2023-12-28T03:39:58;9.70;;;5.63;;
20828;SDS011;10575;50.124;8.582;2023-12-28T03:42:24;8.98;;;5.10;;
20828;SDS011;10575;50.124;8.582;2023-12-28T03:44:49;8.98;;;5.65;;
20828;SDS011;10575;50.124;8.582;2023-12-28T03:47:15;16.20;;;5.60;;
20828;SDS011;10575;50.124;8.582;2023-12-28T03:49:40;9.52;;;6.10;;
20828;SDS011;10575;50.124;8.582;2023-12-28T03:52:06;14.75;;;5.78;;
20828;SDS011;10575;50.124;8.582;2023-12-28T03:54:31;9.50;;;5.43;;
20828;SDS011;10575;50.124;8.582;2023-12-28T03:56:57;8.48;;;5.35;;
20828;SDS011;10575;50.124;8.582;2023-12-28T03:59:22;10.15;;;5.32;;
20828;SDS011;10575;50.124;8.582;2023-12-28T04:01:48;9.38;;;5.60;;
20828;SDS011;10575;50.124;8.582;2023-12-28T04:04:13;10.70;;;5.63;;
20828;SDS011;10575;50.124;8.582;2023-12-28T04:06:39;10.65;;;5.70;;
20828;SDS011;10575;50.124;8.582;2023-12-28T04:09:06;11.30;;;5.68;;
20828;SDS011;10575;50.124;8.582;2023-12-28T04:11:32;11.82;;;6.07;;
20828;SDS011;10575;50.124;8.582;2023-12-28T04:14:00;11.98;;;6.40;;
20828;SDS011;10575;50.124;8.582;2023-12-28T04:16:25;11.70;;;6.25;;
20828;SDS011;10575;50.124;8.582;2023-12-28T04:18:51;10.50;;;5.50;;
20828;SDS011;10575;50.124;8.582;2023-12-28T04:21:16;10.95;;;6.22;;
20828;SDS011;10575;50.124;8.582;2023-12-28T04:23:42;11.38;;;5.40;;
20828;SDS011;10575;50.124;8.582;2023-12-28T04:26:08;10.32;;;5.40;;
20828;SDS011;10575;50.124;8.582;2023-12-28T04:28:33;10.15;;;5.25;;
20828;SDS011;10575;50.124;8.582;2023-12-28T04:31:05;9.93;;;5.07;;
20828;SDS011;10575;50.124;8.582;2023-12-28T04:33:31;9.32;;;5.38;;
20828;SDS011;10575;50.124;8.582;2023-12-28T04:35:57;10.73;;;5.82;;
20828;SDS011;10575;50.124;8.582;2023-12-28T04:38:26;12.77;;;5.57;;
20828;SDS011;10575;50.124;8.582;2023-12-28T04:40:52;8.52;;;5.20;;
20828;SDS011;10575;50.124;8.582;2023-12-28T04:43:17;9.85;;;4.47;;
20828;SDS011;10575;50.124;8.582;2023-12-28T04:45:43;6.72;;;4.88;;
20828;SDS011;10575;50.124;8.582;2023-12-28T04:48:09;9.68;;;4.78;;
20828;SDS011;10575;50.124;8.582;2023-12-28T04:50:34;15.10;;;5.40;;
20828;SDS011;10575;50.124;8.582;2023-12-28T04:52:59;8.75;;;5.28;;
20828;SDS011;10575;50.124;8.582;2023-12-28T04:55:25;8.70;;;4.95;;
20828;SDS011;10575;50.124;8.582;2023-12-28T04:57:51;10.13;;;5.18;;
20828;SDS011;10575;50.124;8.582;2023-12-28T05:00:16;10.40;;;5.30;;
20828;SDS011;10575;50.124;8.582;2023-12-28T05:02:42;6.90;;;4.68;;
20828;SDS011;10575;50.124;8.582;2023-12-28T05:05:07;7.90;;;4.90;;
20828;SDS011;10575;50.124;8.582;2023-12-28T05:07:35;7.38;;;4.65;;
20828;SDS011;10575;50.124;8.582;2023-12-28T05:10:00;8.68;;;4.80;;
20828;SDS011;10575;50.124;8.582;2023-12-28T05:12:26;8.45;;;5.13;;
20828;SDS011;10575;50.124;8.582;2023-12-28T05:14:51;8.00;;;5.05;;
20828;SDS011;10575;50.124;8.582;2023-12-28T05:17:17;7.85;;;4.45;;
20828;SDS011;10575;50.124;8.582;2023-12-28T05:19:43;8.38;;;5.15;;
20828;SDS011;10575;50.124;8.582;2023-12-28T05:22:09;8.70;;;4.95;;
20828;SDS011;10575;50.124;8.582;2023-12-28T05:24:36;9.82;;;4.93;;
20828;SDS011;10575;50.124;8.582;2023-12-28T05:27:01;8.30;;;5.13;;
20828;SDS011;10575;50.124;8.582;2023-12-28T05:29:27;7.20;;;4.95;;
20828;SDS011;10575;50.124;8.582;2023-12-28T05:31:52;7.13;;;4.40;;
20828;SDS011;10575;50.124;8.582;2023-12-28T05:34:18;10.27;;;5.03;;
20828;SDS011;10575;50.124;8.582;2023-12-28T05:36:43;7.85;;;4.78;;
20828;SDS011;10575;50.124;8.582;2023-12-28T05:39:10;11.27;;;5.18;;
20828;SDS011;10575;50.124;8.582;2023-12-28T05:41:38;9.73;;;5.32;;
20828;SDS011;10575;50.124;8.582;2023-12-28T05:44:04;10.10;;;5.10;;
20828;SDS011;10575;50.124;8.582;2023-12-28T05:46:30;10.45;;;4.95;;
20828;SDS011;10575;50.124;8.582;2023-12-28T05:48:55;9.38;;;5.15;;
20828;SDS011;10575;50.124;8.582;2023-12-28T05:51:21;9.13;;;5.30;;
20828;SDS011;10575;50.124;8.582;2023-12-28T05:53:46;9.38;;;6.10;;
20828;SDS011;10575;50.124;8.582;2023-12-28T05:56:12;11.65;;;5.55;;
20828;SDS011;10575;50.124;8.582;2023-12-28T05:58:37;8.13;;;5.50;;
20828;SDS011;10575;50.124;8.582;2023-12-28T06:01:03;13.68;;;5.30;;
20828;SDS011;10575;50.124;8.582;2023-12-28T06:03:30;10.07;;;5.57;;
20828;SDS011;10575;50.124;8.582;2023-12-28T06:05:56;9.65;;;5.88;;
20828;SDS011;10575;50.124;8.582;2023-12-28T06:08:21;9.80;;;5.57;;
20828;SDS011;10575;50.124;8.582;2023-12-28T06:10:47;10.38;;;5.28;;
20828;SDS011;10575;50.124;8.582;2023-12-28T06:13:12;9.50;;;5.25;;
20828;SDS011;10575;50.124;8.582;2023-12-28T06:15:38;11.77;;;5.60;;
20828;SDS011;10575;50.124;8.582;2023-12-28T06:18:03;10.77;;;5.00;;
20828;SDS011;10575;50.124;8.582;2023-12-28T06:20:29;9.80;;;5.30;;
20828;SDS011;10575;50.124;8.582;2023-12-28T06:22:55;8.40;;;4.97;;
20828;SDS011;10575;50.124;8.582;2023-12-28T06:25:20;9.00;;;5.20;;
20828;SDS011;10575;50.124;8.582;2023-12-28T06:27:46;8.68;;;5.15;;
20828;SDS011;10575;50.124;8.582;2023-12-28T06:30:11;9.98;;;4.97;;
20828;SDS011;10575;50.124;8.582;2023-12-28T06:32:37;10.25;;;4.68;;
20828;SDS011;10575;50.124;8.582;2023-12-28T06:35:03;7.95;;;4.75;;
20828;SDS011;10575;50.124;8.582;2023-12-28T06:37:29;7.00;;;4.72;;
20828;SDS011;10575;50.124;8.582;2023-12-28T06:39:54;8.43;;;4.53;;
20828;SDS011;10575;50.124;8.582;2023-12-28T06:42:20;5.78;;;3.78;;
20828;SDS011;10575;50.124;8.582;2023-12-28T06:44:45;10.95;;;4.75;;
20828;SDS011;10575;50.124;8.582;2023-12-28T06:47:11;8.35;;;4.07;;
20828;SDS011;10575;50.124;8.582;2023-12-28T06:49:37;9.38;;;4.07;;
20828;SDS011;10575;50.124;8.582;2023-12-28T06:52:02;9.73;;;4.38;;
20828;SDS011;10575;50.124;8.582;2023-12-28T06:54:29;7.57;;;4.03;;
20828;SDS011;10575;50.124;8.582;2023-12-28T06:56:54;7.88;;;4.15;;
20828;SDS011;10575;50.124;8.582;2023-12-28T06:59:20;5.63;;;3.75;;
20828;SDS011;10575;50.124;8.582;2023-12-28T07:01:45;6.78;;;3.40;;
20828;SDS011;10575;50.124;8.582;2023-12-28T07:04:13;6.82;;;3.92;;
20828;SDS011;10575;50.124;8.582;2023-12-28T07:06:38;5.55;;;3.47;;
20828;SDS011;10575;50.124;8.582;2023-12-28T07:09:04;5.57;;;3.80;;
20828;SDS011;10575;50.124;8.582;2023-12-28T07:11:29;5.80;;;3.45;;
20828;SDS011;10575;50.124;8.582;2023-12-28T07:13:55;5.72;;;3.50;;
20828;SDS011;10575;50.124;8.582;2023-12-28T07:16:20;4.78;;;2.97;;
20828;SDS011;10575;50.124;8.582;2023-12-28T07:18:46;5.57;;;3.50;;
20828;SDS011;10575;50.124;8.582;2023-12-28T07:21:11;4.88;;;3.25;;
20828;SDS011;10575;50.124;8.582;2023-12-28T07:23:37;6.63;;;3.45;;
20828;SDS011;10575;50.124;8.582;2023-12-28T07:26:03;6.38;;;3.03;;
20828;SDS011;10575;50.124;8.582;2023-12-28T07:28:29;5.13;;;3.03;;
20828;SDS011;10575;50.124;8.582;2023-12-28T07:30:55;6.63;;;2.95;;
20828;SDS011;10575;50.124;8.582;2023-12-28T07:33:20;4.82;;;3.10;;
20828;SDS011;10575;50.124;8.582;2023-12-28T07:35:46;7.35;;;3.33;;
20828;SDS011;10575;50.124;8.582;2023-12-28T07:38:12;4.70;;;3.03;;
20828;SDS011;10575;50.124;8.582;2023-12-28T07:40:38;6.18;;;3.65;;
20828;SDS011;10575;50.124;8.582;2023-12-28T07:43:03;6.50;;;3.17;;
20828;SDS011;10575;50.124;8.582;2023-12-28T07:45:29;5.93;;;3.45;;
20828;SDS011;10575;50.124;8.582;2023-12-28T07:47:55;5.03;;;3.00;;
20828;SDS011;10575;50.124;8.582;2023-12-28T07:50:20;4.65;;;3.03;;
20828;SDS011;10575;50.124;8.582;2023-12-28T07:52:47;5.78;;;3.42;;
20828;SDS011;10575;50.124;8.582;2023-12-28T07:55:13;5.65;;;3.40;;
20828;SDS011;10575;50.124;8.582;2023-12-28T07:57:39;5.35;;;3.47;;
20828;SDS011;10575;50.124;8.582;2023-12-28T08:00:06;6.53;;;3.55;;
20828;SDS011;10575;50.124;8.582;2023-12-28T08:02:32;6.05;;;3.60;;
20828;SDS011;10575;50.124;8.582;2023-12-28T08:04:58;7.95;;;3.30;;
20828;SDS011;10575;50.124;8.582;2023-12-28T08:07:24;6.95;;;3.60;;
20828;SDS011;10575;50.124;8.582;2023-12-28T08:09:49;5.25;;;3.10;;
20828;SDS011;10575;50.124;8.582;2023-12-28T08:12:15;6.53;;;3.17;;
20828;SDS011;10575;50.124;8.582;2023-12-28T08:14:41;7.15;;;3.20;;
20828;SDS011;10575;50.124;8.582;2023-12-28T08:17:07;5.90;;;3.17;;
20828;SDS011;10575;50.124;8.582;2023-12-28T08:19:33;6.15;;;3.35;;
20828;SDS011;10575;50.124;8.582;2023-12-28T08:22:01;3.92;;;3.00;;
20828;SDS011;10575;50.124;8.582;2023-12-28T08:24:27;4.65;;;3.53;;
20828;SDS011;10575;50.124;8.582;2023-12-28T08:26:53;6.53;;;3.90;;
20828;SDS011;10575;50.124;8.582;2023-12-28T08:29:19;7.10;;;3.75;;
20828;SDS011;10575;50.124;8.582;2023-12-28T08:31:44;6.45;;;3.47;;
20828;SDS011;10575;50.124;8.582;2023-12-28T08:34:10;5.72;;;4.13;;
20828;SDS011;10575;50.124;8.582;2023-12-28T08:36:35;5.65;;;3.58;;
20828;SDS011;10575;50.124;8.582;2023-12-28T08:39:01;8.05;;;3.72;;
20828;SDS011;10575;50.124;8.582;2023-12-28T08:41:26;5.57;;;3.35;;
20828;SDS011;10575;50.124;8.582;2023-12-28T08:43:52;4.10;;;3.15;;
20828;SDS011;10575;50.124;8.582;2023-12-28T08:46:19;5.90;;;3.88;;
20828;SDS011;10575;50.124;8.582;2023-12-28T08:48:45;6.90;;;4.10;;
20828;SDS011;10575;50.124;8.582;2023-12-28T08:51:11;4.90;;;3.83;;
20828;SDS011;10575;50.124;8.582;2023-12-28T08:53:39;5.07;;;3.55;;
20828;SDS011;10575;50.124;8.582;2023-12-28T08:58:43;7.22;;;3.53;;
20828;SDS011;10575;50.124;8.582;2023-12-28T09:01:15;6.07;;;3.83;;
20828;SDS011;10575;50.124;8.582;2023-12-28T09:03:41;6.45;;;3.60;;
20828;SDS011;10575;50.124;8.582;2023-12-28T09:06:07;7.65;;;4.75;;
20828;SDS011;10575;50.124;8.582;2023-12-28T09:08:33;5.93;;;3.83;;
20828;SDS011;10575;50.124;8.582;2023-12-28T09:10:58;4.93;;;3.50;;
20828;SDS011;10575;50.124;8.582;2023-12-28T09:13:24;6.68;;;3.67;;
20828;SDS011;10575;50.124;8.582;2023-12-28T09:15:50;5.72;;;3.95;;
20828;SDS011;10575;50.124;8.582;2023-12-28T09:18:15;5.10;;;3.22;;
20828;SDS011;10575;50.124;8.582;2023-12-28T09:20:41;4.68;;;3.30;;
20828;SDS011;10575;50.124;8.582;2023-12-28T09:23:06;5.32;;;3.33;;
20828;SDS011;10575;50.124;8.582;2023-12-28T09:25:34;6.47;;;3.60;;
20828;SDS011;10575;50.124;8.582;2023-12-28T09:27:59;5.53;;;3.50;;
20828;SDS011;10575;50.124;8.582;2023-12-28T09:30:25;8.27;;;3.80;;
20828;SDS011;10575;50.124;8.582;2023-12-28T09:32:50;7.80;;;3.10;;
20828;SDS011;10575;50.124;8.582;2023-12-28T09:35:16;7.55;;;3.38;;
20828;SDS011;10575;50.124;8.582;2023-12-28T09:37:41;8.52;;;3.33;;
20828;SDS011;10575;50.124;8.582;2023-12-28T09:40:07;8.45;;;3.63;;
20828;SDS011;10575;50.124;8.582;2023-12-28T09:42:39;5.35;;;3.78;;
20828;SDS011;10575;50.124;8.582;2023-12-28T09:45:25;8.80;;;3.90;;
20828;SDS011;10575;50.124;8.582;2023-12-28T09:47:50;7.85;;;3.42;;
20828;SDS011;10575;50.124;8.582;2023-12-28T09:50:17;6.22;;;3.67;;
20828;SDS011;10575;50.124;8.582;2023-12-28T09:52:43;8.43;;;4.25;;
20828;SDS011;10575;50.124;8.582;2023-12-28T09:55:08;6.55;;;3.85;;
20828;SDS011;10575;50.124;8.582;2023-12-28T09:57:34;6.60;;;4.07;;
20828;SDS011;10575;50.124;8.582;2023-12-28T10:00:01;8.82;;;4.22;;
20828;SDS011;10575;50.124;8.582;2023-12-28T10:02:27;5.82;;;3.45;;
20828;SDS011;10575;50.124;8.582;2023-12-28T10:04:53;6.35;;;3.47;;
20828;SDS011;10575;50.124;8.582;2023-12-28T10:07:19;7.22;;;3.80;;
20828;SDS011;10575;50.124;8.582;2023-12-28T10:09:45;6.97;;;3.47;;
20828;SDS011;10575;50.124;8.582;2023-12-28T10:12:10;7.90;;;3.72;;
20828;SDS011;10575;50.124;8.582;2023-12-28T10:14:36;5.18;;;3.75;;
20828;SDS011;10575;50.124;8.582;2023-12-28T10:17:01;6.63;;;3.80;;
20828;SDS011;10575;50.124;8.582;2023-12-28T10:19:27;6.07;;;3.13;;
20828;SDS011;10575;50.124;8.582;2023-12-28T10:21:52;9.05;;;3.65;;
20828;SDS011;10575;50.124;8.582;2023-12-28T10:24:18;5.72;;;3.55;;
20828;SDS011;10575;50.124;8.582;2023-12-28T10:26:44;4.82;;;3.50;;
20828;SDS011;10575;50.124;8.582;2023-12-28T10:29:10;10.23;;;4.28;;
20828;SDS011;10575;50.124;8.582;2023-12-28T10:31:35;5.38;;;3.53;;
20828;SDS011;10575;50.124;8.582;2023-12-28T10:34:01;8.23;;;3.65;;
20828;SDS011;10575;50.124;8.582;2023-12-28T10:36:27;6.53;;;3.50;;
20828;SDS011;10575;50.124;8.582;2023-12-28T10:38:53;7.03;;;3.47;;
20828;SDS011;10575;50.124;8.582;2023-12-28T10:41:19;7.05;;;3.53;;
20828;SDS011;10575;50.124;8.582;2023-12-28T10:43:50;5.15;;;3.33;;
20828;SDS011;10575;50.124;8.582;2023-12-28T10:46:27;8.35;;;3.55;;
20828;SDS011;10575;50.124;8.582;2023-12-28T10:48:58;7.40;;;3.45;;
20828;SDS011;10575;50.124;8.582;2023-12-28T10:51:27;6.72;;;3.42;;
20828;SDS011;10575;50.124;8.582;2023-12-28T10:54:10;6.53;;;2.92;;
20828;SDS011;10575;50.124;8.582;2023-12-28T10:56:49;6.18;;;3.30;;
20828;SDS011;10575;50.124;8.582;2023-12-28T11:02:33;6.43;;;2.80;;
20828;SDS011;10575;50.124;8.582;2023-12-28T11:05:16;11.15;;;3.95;;
20828;SDS011;10575;50.124;8.582;2023-12-28T11:07:44;6.03;;;3.40;;
20828;SDS011;10575;50.124;8.582;2023-12-28T11:10:13;7.20;;;3.40;;
20828;SDS011;10575;50.124;8.582;2023-12-28T11:12:39;7.10;;;3.20;;
20828;SDS011;10575;50.124;8.582;2023-12-28T11:15:05;7.88;;;3.72;;
20828;SDS011;10575;50.124;8.582;2023-12-28T11:17:33;3.28;;;2.70;;
20828;SDS011;10575;50.124;8.582;2023-12-28T11:20:01;5.50;;;3.30;;
20828;SDS011;10575;50.124;8.582;2023-12-28T11:22:29;6.43;;;3.20;;
20828;SDS011;10575;50.124;8.582;2023-12-28T11:24:56;6.82;;;3.50;;
20828;SDS011;10575;50.124;8.582;2023-12-28T11:27:21;5.22;;;3.30;;
20828;SDS011;10575;50.124;8.582;2023-12-28T11:29:48;8.07;;;3.20;;
20828;SDS011;10575;50.124;8.582;2023-12-28T11:32:14;5.03;;;3.13;;
20828;SDS011;10575;50.124;8.582;2023-12-28T11:34:39;6.60;;;3.30;;
20828;SDS011;10575;50.124;8.582;2023-12-28T11:37:06;4.93;;;3.25;;
20828;SDS011;10575;50.124;8.582;2023-12-28T11:39:35;8.73;;;3.42;;
20828;SDS011;10575;50.124;8.582;2023-12-28T11:42:04;7.45;;;3.20;;
20828;SDS011;10575;50.124;8.582;2023-12-28T11:44:31;9.20;;;3.13;;
20828;SDS011;10575;50.124;8.582;2023-12-28T11:47:10;4.88;;;3.03;;
20828;SDS011;10575;50.124;8.582;2023-12-28T11:49:36;5.65;;;3.03;;
20828;SDS011;10575;50.124;8.582;2023-12-28T11:52:02;4.00;;;2.92;;
20828;SDS011;10575;50.124;8.582;2023-12-28T11:54:30;10.98;;;3.00;;
20828;SDS011;10575;50.124;8.582;2023-12-28T11:56:55;6.85;;;2.78;;
20828;SDS011;10575;50.124;8.582;2023-12-28T11:59:21;6.70;;;3.28;;
20828;SDS011;10575;50.124;8.582;2023-12-28T12:01:50;6.32;;;2.95;;
20828;SDS011;10575;50.124;8.582;2023-12-28T12:04:16;4.25;;;2.83;;
20828;SDS011;10575;50.124;8.582;2023-12-28T12:06:43;5.05;;;2.90;;
20828;SDS011;10575;50.124;8.582;2023-12-28T12:09:11;4.38;;;2.50;;
20828;SDS011;10575;50.124;8.582;2023-12-28T12:11:37;4.57;;;2.67;;
20828;SDS011;10575;50.124;8.582;2023-12-28T12:14:03;10.23;;;2.58;;
20828;SDS011;10575;50.124;8.582;2023-12-28T12:16:34;7.63;;;2.72;;
20828;SDS011;10575;50.124;8.582;2023-12-28T12:19:00;5.85;;;2.40;;
20828;SDS011;10575;50.124;8.582;2023-12-28T12:21:25;3.42;;;2.17;;
20828;SDS011;10575;50.124;8.582;2023-12-28T12:23:52;5.45;;;2.47;;
20828;SDS011;10575;50.124;8.582;2023-12-28T12:26:19;5.88;;;2.55;;
20828;SDS011;10575;50.124;8.582;2023-12-28T12:28:45;5.15;;;2.22;;
20828;SDS011;10575;50.124;8.582;2023-12-28T12:31:10;4.38;;;2.45;;
20828;SDS011;10575;50.124;8.582;2023-12-28T12:33:37;5.25;;;2.95;;
20828;SDS011;10575;50.124;8.582;2023-12-28T12:36:03;6.80;;;2.03;;
20828;SDS011;10575;50.124;8.582;2023-12-28T12:38:31;4.53;;;2.60;;
20828;SDS011;10575;50.124;8.582;2023-12-28T12:40:57;4.90;;;2.22;;
20828;SDS011;10575;50.124;8.582;2023-12-28T12:43:23;5.00;;;2.50;;
20828;SDS011;10575;50.124;8.582;2023-12-28T12:45:49;3.08;;;1.92;;
20828;SDS011;10575;50.124;8.582;2023-12-28T12:48:14;4.05;;;2.38;;
20828;SDS011;10575;50.124;8.582;2023-12-28T12:50:40;6.28;;;2.55;;
20828;SDS011;10575;50.124;8.582;2023-12-28T12:53:06;8.32;;;2.72;;
20828;SDS011;10575;50.124;8.582;2023-12-28T12:55:31;4.45;;;2.90;;
20828;SDS011;10575;50.124;8.582;2023-12-28T12:57:57;4.60;;;2.55;;
20828;SDS011;10575;50.124;8.582;2023-12-28T13:00:23;6.47;;;2.60;;
20828;SDS011;10575;50.124;8.582;2023-12-28T13:02:49;6.35;;;3.00;;
20828;SDS011;10575;50.124;8.582;2023-12-28T13:05:23;6.75;;;3.10;;
20828;SDS011;10575;50.124;8.582;2023-12-28T13:07:49;5.00;;;3.00;;
20828;SDS011;10575;50.124;8.582;2023-12-28T13:10:14;10.50;;;3.20;;
20828;SDS011;10575;50.124;8.582;2023-12-28T13:12:40;7.68;;;3.00;;
20828;SDS011;10575;50.124;8.582;2023-12-28T13:15:06;4.95;;;2.53;;
20828;SDS011;10575;50.124;8.582;2023-12-28T13:17:34;5.45;;;3.10;;
20828;SDS011;10575;50.124;8.582;2023-12-28T13:20:00;9.15;;;3.40;;
20828;SDS011;10575;50.124;8.582;2023-12-28T13:22:26;4.60;;;2.80;;
20828;SDS011;10575;50.124;8.582;2023-12-28T13:24:51;6.07;;;3.30;;
20828;SDS011;10575;50.124;8.582;2023-12-28T13:27:17;4.55;;;3.33;;
20828;SDS011;10575;50.124;8.582;2023-12-28T13:29:43;7.25;;;3.20;;
20828;SDS011;10575;50.124;8.582;2023-12-28T13:32:09;6.65;;;3.20;;
20828;SDS011;10575;50.124;8.582;2023-12-28T13:34:34;6.50;;;3.30;;
20828;SDS011;10575;50.124;8.582;2023-12-28T13:37:00;6.68;;;3.75;;
20828;SDS011;10575;50.124;8.582;2023-12-28T13:39:27;6.57;;;3.03;;
20828;SDS011;10575;50.124;8.582;2023-12-28T13:41:53;5.72;;;2.90;;
20828;SDS011;10575;50.124;8.582;2023-12-28T13:44:19;8.52;;;3.28;;
20828;SDS011;10575;50.124;8.582;2023-12-28T13:46:45;4.82;;;3.00;;
20828;SDS011;10575;50.124;8.582;2023-12-28T13:49:10;8.25;;;3.17;;
20828;SDS011;10575;50.124;8.582;2023-12-28T13:51:36;9.40;;;3.25;;
20828;SDS011;10575;50.124;8.582;2023-12-28T13:54:01;5.88;;;2.88;;
20828;SDS011;10575;50.124;8.582;2023-12-28T13:56:27;6.57;;;3.33;;
20828;SDS011;10575;50.124;8.582;2023-12-28T13:58:53;7.60;;;3.10;;
20828;SDS011;10575;50.124;8.582;2023-12-28T14:01:19;4.75;;;2.80;;
20828;SDS011;10575;50.124;8.582;2023-12-28T14:03:45;6.93;;;3.20;;
20828;SDS011;10575;50.124;8.582;2023-12-28T14:06:13;4.97;;;2.67;;
20828;SDS011;10575;50.124;8.582;2023-12-28T14:08:38;9.68;;;2.90;;
20828;SDS011;10575;50.124;8.582;2023-12-28T14:11:04;7.97;;;2.85;;
20828;SDS011;10575;50.124;8.582;2023-12-28T14:13:29;4.32;;;2.40;;
20828;SDS011;10575;50.124;8.582;2023-12-28T14:15:56;3.58;;;2.35;;
20828;SDS011;10575;50.124;8.582;2023-12-28T14:18:21;3.08;;;2.42;;
20828;SDS011;10575;50.124;8.582;2023-12-28T14:20:47;4.43;;;2.75;;
20828;SDS011;10575;50.124;8.582;2023-12-28T14:23:12;4.25;;;2.15;;
20828;SDS011;10575;50.124;8.582;2023-12-28T14:25:38;3.10;;;2.10;;
20828;SDS011;10575;50.124;8.582;2023-12-28T14:28:04;3.15;;;2.17;;
20828;SDS011;10575;50.124;8.582;2023-12-28T14:30:30;2.33;;;1.98;;
20828;SDS011;10575;50.124;8.582;2023-12-28T14:32:56;5.00;;;2.00;;
20828;SDS011;10575;50.124;8.582;2023-12-28T14:35:22;3.08;;;1.90;;
20828;SDS011;10575;50.124;8.582;2023-12-28T14:37:47;4.38;;;1.95;;
20828;SDS011;10575;50.124;8.582;2023-12-28T14:40:13;3.40;;;1.73;;
20828;SDS011;10575;50.124;8.582;2023-12-28T14:42:39;1.80;;;1.60;;